sensor_id;sensor_type;location;lat;lon;timestamp;pressure;altitude;pressure_sealevel;temperature;humidity
30744;BME280;17486;46.738;7.622;2023-11-19T00:01:00;95648.31;;;7.67;71.38
30744;BME280;17486;46.738;7.622;2023-11-19T00:03:26;95618.66;;;7.51;71.27
30744;BME280;17486;46.738;7.622;2023-11-19T00:05:51;95626.19;;;7.57;71.37
30744;BME280;17486;46.738;7.622;2023-11-19T00:08:17;95650.16;;;7.63;71.46
30744;BME280;17486;46.738;7.622;2023-11-19T00:10:42;95621.91;;;7.56;71.76
30744;BME280;17486;46.738;7.622;2023-11-19T00:13:07;95625.31;;;7.58;71.62
30744;BME280;17486;46.738;7.622;2023-11-19T00:15:33;95638.91;;;7.64;71.74
30744;BME280;17486;46.738;7.622;2023-11-19T00:17:58;95636.38;;;7.63;71.68
30744;BME280;17486;46.738;7.622;2023-11-19T00:20:24;95624.31;;;7.62;71.38
30744;BME280;17486;46.738;7.622;2023-11-19T00:22:49;95602.16;;;7.53;71.50
30744;BME280;17486;46.738;7.622;2023-11-19T00:25:19;95608.25;;;7.52;71.58
30744;BME280;17486;46.738;7.622;2023-11-19T00:27:44;95596.00;;;7.57;71.41
30744;BME280;17486;46.738;7.622;2023-11-19T00:30:10;95612.44;;;7.56;71.52
30744;BME280;17486;46.738;7.622;2023-11-19T00:32:36;95555.44;;;7.31;71.37
30744;BME280;17486;46.738;7.622;2023-11-19T00:35:04;95558.81;;;7.33;71.58
30744;BME280;17486;46.738;7.622;2023-11-19T00:37:29;95602.16;;;7.53;71.42
30744;BME280;17486;46.738;7.622;2023-11-19T00:39:55;95592.84;;;7.47;71.63
30744;BME280;17486;46.738;7.622;2023-11-19T00:42:22;95598.91;;;7.46;71.32
30744;BME280;17486;46.738;7.622;2023-11-19T00:44:47;95596.13;;;7.53;71.66
30744;BME280;17486;46.738;7.622;2023-11-19T00:47:12;95593.72;;;7.48;71.43
30744;BME280;17486;46.738;7.622;2023-11-19T00:49:38;95585.09;;;7.47;71.41
30744;BME280;17486;46.738;7.622;2023-11-19T00:52:03;95602.19;;;7.52;71.74
30744;BME280;17486;46.738;7.622;2023-11-19T00:54:29;95597.09;;;7.50;71.54
30744;BME280;17486;46.738;7.622;2023-11-19T00:56:55;95588.53;;;7.48;71.65
30744;BME280;17486;46.738;7.622;2023-11-19T00:59:20;95593.66;;;7.50;71.57
30744;BME280;17486;46.738;7.622;2023-11-19T01:01:46;95608.31;;;7.51;71.74
30744;BME280;17486;46.738;7.622;2023-11-19T01:04:14;95613.47;;;7.51;71.90
30744;BME280;17486;46.738;7.622;2023-11-19T01:06:40;95602.44;;;7.44;71.83
30744;BME280;17486;46.738;7.622;2023-11-19T01:09:07;95609.25;;;7.48;71.50
30744;BME280;17486;46.738;7.622;2023-11-19T01:11:33;95582.91;;;7.35;71.69
30744;BME280;17486;46.738;7.622;2023-11-19T01:13:59;95610.25;;;7.42;72.13
30744;BME280;17486;46.738;7.622;2023-11-19T01:16:26;95579.84;;;7.22;71.74
30744;BME280;17486;46.738;7.622;2023-11-19T01:18:51;95557.03;;;7.07;71.85
30744;BME280;17486;46.738;7.622;2023-11-19T01:21:17;95624.09;;;7.41;71.77
30744;BME280;17486;46.738;7.622;2023-11-19T01:23:43;95629.41;;;7.37;72.08
30744;BME280;17486;46.738;7.622;2023-11-19T01:26:09;95620.72;;;7.39;71.80
30744;BME280;17486;46.738;7.622;2023-11-19T01:28:38;95618.13;;;7.39;72.00
30744;BME280;17486;46.738;7.622;2023-11-19T01:31:14;95628.53;;;7.38;71.43
30744;BME280;17486;46.738;7.622;2023-11-19T01:33:40;95619.13;;;7.35;71.98
30744;BME280;17486;46.738;7.622;2023-11-19T01:36:07;95608.84;;;7.32;71.91
30744;BME280;17486;46.738;7.622;2023-11-19T01:38:33;95597.06;;;7.23;71.76
30744;BME280;17486;46.738;7.622;2023-11-19T01:40:59;95614.88;;;7.33;71.66
30744;BME280;17486;46.738;7.622;2023-11-19T01:43:39;95614.97;;;7.29;71.58
30744;BME280;17486;46.738;7.622;2023-11-19T01:46:07;95590.31;;;7.18;71.46
30744;BME280;17486;46.738;7.622;2023-11-19T01:48:37;95599.69;;;7.22;71.42
30744;BME280;17486;46.738;7.622;2023-11-19T01:51:05;95606.41;;;7.27;71.52
30744;BME280;17486;46.738;7.622;2023-11-19T01:53:31;95604.72;;;7.26;71.64
30744;BME280;17486;46.738;7.622;2023-11-19T01:55:58;95596.19;;;7.23;71.83
30744;BME280;17486;46.738;7.622;2023-11-19T01:58:24;95569.91;;;7.08;71.56
30744;BME280;17486;46.738;7.622;2023-11-19T02:00:49;95581.84;;;7.12;72.09
30744;BME280;17486;46.738;7.622;2023-11-19T02:03:15;95568.13;;;7.10;72.12
30744;BME280;17486;46.738;7.622;2023-11-19T02:05:41;95596.19;;;7.23;71.93
30744;BME280;17486;46.738;7.622;2023-11-19T02:08:07;95587.72;;;7.18;72.03
30744;BME280;17486;46.738;7.622;2023-11-19T02:10:33;95597.91;;;7.24;71.86
30744;BME280;17486;46.738;7.622;2023-11-19T02:42:49;95532.41;;;7.23;73.56
30744;BME280;17486;46.738;7.622;2023-11-19T02:45:15;95518.13;;;7.11;73.64
30744;BME280;17486;46.738;7.622;2023-11-19T02:47:41;95540.09;;;7.25;73.75
30744;BME280;17486;46.738;7.622;2023-11-19T02:50:12;95507.75;;;7.11;74.47
30744;BME280;17486;46.738;7.622;2023-11-19T02:52:44;95533.75;;;7.35;75.63
30744;BME280;17486;46.738;7.622;2023-11-19T02:55:11;95519.69;;;7.42;76.17
30744;BME280;17486;46.738;7.622;2023-11-19T02:57:40;95537.56;;;7.50;75.93
30744;BME280;17486;46.738;7.622;2023-11-19T03:00:18;95536.50;;;7.56;75.55
30744;BME280;17486;46.738;7.622;2023-11-19T03:02:46;95533.88;;;7.57;74.99
30744;BME280;17486;46.738;7.622;2023-11-19T03:05:13;95525.25;;;7.57;75.05
30744;BME280;17486;46.738;7.622;2023-11-19T03:07:41;95531.13;;;7.62;75.16
30744;BME280;17486;46.738;7.622;2023-11-19T03:10:08;95505.63;;;7.51;75.10
30744;BME280;17486;46.738;7.622;2023-11-19T03:12:34;95529.28;;;7.66;75.29
30744;BME280;17486;46.738;7.622;2023-11-19T03:14:59;95511.22;;;7.64;75.14
30744;BME280;17486;46.738;7.622;2023-11-19T03:17:25;95511.88;;;7.71;75.74
30744;BME280;17486;46.738;7.622;2023-11-19T03:19:50;95501.34;;;7.75;75.68
30744;BME280;17486;46.738;7.622;2023-11-19T03:22:15;95484.81;;;7.79;75.11
30744;BME280;17486;46.738;7.622;2023-11-19T03:24:41;95489.34;;;7.73;75.89
30744;BME280;17486;46.738;7.622;2023-11-19T03:27:06;95458.13;;;7.77;75.55
30744;BME280;17486;46.738;7.622;2023-11-19T03:29:32;95487.84;;;7.91;75.57
30744;BME280;17486;46.738;7.622;2023-11-19T03:31:57;95435.72;;;7.76;75.45
30744;BME280;17486;46.738;7.622;2023-11-19T03:34:22;95465.03;;;8.02;75.87
30744;BME280;17486;46.738;7.622;2023-11-19T03:36:48;95434.06;;;7.99;75.85
30744;BME280;17486;46.738;7.622;2023-11-19T03:39:14;95431.13;;;8.08;76.41
30744;BME280;17486;46.738;7.622;2023-11-19T03:41:39;95455.56;;;8.25;76.35
30744;BME280;17486;46.738;7.622;2023-11-19T03:44:05;95452.69;;;8.33;76.36
30744;BME280;17486;46.738;7.622;2023-11-19T03:46:30;95442.94;;;8.39;77.18
30744;BME280;17486;46.738;7.622;2023-11-19T03:48:56;95430.84;;;8.40;76.94
30744;BME280;17486;46.738;7.622;2023-11-19T03:51:21;95388.19;;;8.25;76.73
30744;BME280;17486;46.738;7.622;2023-11-19T03:53:47;95440.81;;;8.51;76.68
30744;BME280;17486;46.738;7.622;2023-11-19T03:56:13;95440.47;;;8.60;76.67
30744;BME280;17486;46.738;7.622;2023-11-19T03:58:39;95454.91;;;8.66;76.67
30744;BME280;17486;46.738;7.622;2023-11-19T04:01:13;95442.75;;;8.68;76.56
30744;BME280;17486;46.738;7.622;2023-11-19T04:03:39;95459.66;;;8.78;76.80
30744;BME280;17486;46.738;7.622;2023-11-19T04:06:05;95452.69;;;8.78;76.27
30744;BME280;17486;46.738;7.622;2023-11-19T04:08:30;95449.97;;;8.82;75.70
30744;BME280;17486;46.738;7.622;2023-11-19T04:10:56;95395.78;;;8.53;75.77
30744;BME280;17486;46.738;7.622;2023-11-19T04:13:21;95437.38;;;8.72;76.11
30744;BME280;17486;46.738;7.622;2023-11-19T04:15:49;95432.31;;;8.91;76.03
30744;BME280;17486;46.738;7.622;2023-11-19T04:18:14;95452.88;;;8.96;76.19
30744;BME280;17486;46.738;7.622;2023-11-19T04:20:39;95448.19;;;8.84;76.42
30744;BME280;17486;46.738;7.622;2023-11-19T04:23:07;95421.28;;;8.64;76.48
30744;BME280;17486;46.738;7.622;2023-11-19T04:25:33;95444.19;;;8.75;76.55
30744;BME280;17486;46.738;7.622;2023-11-19T04:27:58;95454.09;;;8.87;76.54
30744;BME280;17486;46.738;7.622;2023-11-19T04:30:24;95439.59;;;8.82;76.17
30744;BME280;17486;46.738;7.622;2023-11-19T04:32:49;95447.09;;;8.89;76.34
30744;BME280;17486;46.738;7.622;2023-11-19T04:35:14;95445.94;;;8.96;76.82
30744;BME280;17486;46.738;7.622;2023-11-19T04:37:41;95457.22;;;8.95;76.53
30744;BME280;17486;46.738;7.622;2023-11-19T04:40:07;95457.53;;;8.88;76.40
30744;BME280;17486;46.738;7.622;2023-11-19T04:42:32;95463.38;;;8.93;76.02
30744;BME280;17486;46.738;7.622;2023-11-19T04:44:58;95478.47;;;9.05;75.98
30744;BME280;17486;46.738;7.622;2023-11-19T04:47:24;95463.72;;;9.06;75.39
30744;BME280;17486;46.738;7.622;2023-11-19T04:49:49;95489.53;;;9.09;75.53
30744;BME280;17486;46.738;7.622;2023-11-19T04:52:14;95510.28;;;9.09;75.87
30744;BME280;17486;46.738;7.622;2023-11-19T04:54:43;95477.25;;;8.92;75.52
30744;BME280;17486;46.738;7.622;2023-11-19T04:57:09;95473.88;;;8.90;75.81
30744;BME280;17486;46.738;7.622;2023-11-19T04:59:37;95512.00;;;9.10;75.54
30744;BME280;17486;46.738;7.622;2023-11-19T05:02:03;95522.56;;;9.05;75.94
30744;BME280;17486;46.738;7.622;2023-11-19T05:04:29;95504.09;;;8.91;75.82
30744;BME280;17486;46.738;7.622;2023-11-19T05:06:55;95538.13;;;9.05;75.36
30744;BME280;17486;46.738;7.622;2023-11-19T05:09:20;95546.75;;;9.06;74.75
30744;BME280;17486;46.738;7.622;2023-11-19T05:11:45;95542.53;;;9.03;74.67
30744;BME280;17486;46.738;7.622;2023-11-19T05:14:11;95520.44;;;8.93;74.10
30744;BME280;17486;46.738;7.622;2023-11-19T05:16:39;95527.25;;;8.95;74.51
30744;BME280;17486;46.738;7.622;2023-11-19T05:19:04;95521.00;;;8.79;74.09
30744;BME280;17486;46.738;7.622;2023-11-19T05:21:30;95526.78;;;8.86;74.26
30744;BME280;17486;46.738;7.622;2023-11-19T05:23:55;95543.25;;;8.85;74.10
30744;BME280;17486;46.738;7.622;2023-11-19T05:26:23;95526.88;;;8.83;74.51
30744;BME280;17486;46.738;7.622;2023-11-19T05:28:49;95518.00;;;8.66;74.30
30744;BME280;17486;46.738;7.622;2023-11-19T05:31:16;95515.28;;;8.69;74.24
30744;BME280;17486;46.738;7.622;2023-11-19T05:33:42;95496.53;;;8.62;74.20
30744;BME280;17486;46.738;7.622;2023-11-19T05:36:07;95536.72;;;8.74;74.43
30744;BME280;17486;46.738;7.622;2023-11-19T05:38:34;95533.44;;;8.69;74.45
30744;BME280;17486;46.738;7.622;2023-11-19T05:40:59;95505.50;;;8.54;74.24
30744;BME280;17486;46.738;7.622;2023-11-19T05:43:24;95530.91;;;8.68;74.67
30744;BME280;17486;46.738;7.622;2023-11-19T05:45:50;95532.75;;;8.64;74.75
30744;BME280;17486;46.738;7.622;2023-11-19T05:48:16;95488.81;;;8.37;74.45
30744;BME280;17486;46.738;7.622;2023-11-19T05:50:42;95538.06;;;8.61;74.65
30744;BME280;17486;46.738;7.622;2023-11-19T05:53:07;95542.31;;;8.63;74.78
30744;BME280;17486;46.738;7.622;2023-11-19T05:55:36;95547.66;;;8.59;75.08
30744;BME280;17486;46.738;7.622;2023-11-19T05:58:03;95556.31;;;8.58;74.68
30744;BME280;17486;46.738;7.622;2023-11-19T06:00:29;95541.72;;;8.55;74.81
30744;BME280;17486;46.738;7.622;2023-11-19T06:02:55;95538.13;;;8.59;74.69
30744;BME280;17486;46.738;7.622;2023-11-19T06:05:21;95502.75;;;8.33;75.10
30744;BME280;17486;46.738;7.622;2023-11-19T06:07:46;95534.75;;;8.57;74.73
30744;BME280;17486;46.738;7.622;2023-11-19T06:10:12;95529.69;;;8.54;74.69
30744;BME280;17486;46.738;7.622;2023-11-19T06:12:41;95511.69;;;8.50;74.72
30744;BME280;17486;46.738;7.622;2023-11-19T06:15:07;95519.59;;;8.46;74.89
30744;BME280;17486;46.738;7.622;2023-11-19T06:17:36;95529.69;;;8.54;75.59
30744;BME280;17486;46.738;7.622;2023-11-19T06:20:03;95535.75;;;8.53;75.42
30744;BME280;17486;46.738;7.622;2023-11-19T06:22:29;95527.25;;;8.50;75.15
30744;BME280;17486;46.738;7.622;2023-11-19T06:24:55;95507.19;;;8.55;75.70
30744;BME280;17486;46.738;7.622;2023-11-19T06:27:21;95526.97;;;8.57;75.31
30744;BME280;17486;46.738;7.622;2023-11-19T06:29:47;95515.97;;;8.51;75.50
30744;BME280;17486;46.738;7.622;2023-11-19T06:32:12;95530.34;;;8.59;75.24
30744;BME280;17486;46.738;7.622;2023-11-19T06:34:38;95478.88;;;8.25;75.32
30744;BME280;17486;46.738;7.622;2023-11-19T06:37:03;95544.16;;;8.60;75.36
30744;BME280;17486;46.738;7.622;2023-11-19T06:39:29;95555.31;;;8.62;75.65
30744;BME280;17486;46.738;7.622;2023-11-19T06:41:55;95537.19;;;8.62;75.28
30744;BME280;17486;46.738;7.622;2023-11-19T06:44:20;95556.31;;;8.58;75.63
30744;BME280;17486;46.738;7.622;2023-11-19T06:46:45;95565.72;;;8.60;75.42
30744;BME280;17486;46.738;7.622;2023-11-19T06:49:11;95554.66;;;8.57;75.82
30744;BME280;17486;46.738;7.622;2023-11-19T06:51:41;95556.38;;;8.56;75.71
30744;BME280;17486;46.738;7.622;2023-11-19T06:54:07;95559.94;;;8.54;75.72
30744;BME280;17486;46.738;7.622;2023-11-19T06:56:32;95578.88;;;8.56;75.97
30744;BME280;17486;46.738;7.622;2023-11-19T06:58:58;95540.38;;;8.43;75.85
30744;BME280;17486;46.738;7.622;2023-11-19T07:01:23;95558.13;;;8.56;75.98
30744;BME280;17486;46.738;7.622;2023-11-19T07:03:48;95508.19;;;8.27;76.14
30744;BME280;17486;46.738;7.622;2023-11-19T07:06:14;95596.75;;;8.63;76.04
30744;BME280;17486;46.738;7.622;2023-11-19T07:08:43;95588.16;;;8.61;75.68
30744;BME280;17486;46.738;7.622;2023-11-19T07:11:12;95562.75;;;8.48;75.76
30744;BME280;17486;46.738;7.622;2023-11-19T07:13:39;95595.88;;;8.63;76.22
30744;BME280;17486;46.738;7.622;2023-11-19T07:16:05;95577.50;;;8.45;76.18
30744;BME280;17486;46.738;7.622;2023-11-19T07:18:31;95610.53;;;8.64;76.78
30744;BME280;17486;46.738;7.622;2023-11-19T07:20:57;95615.78;;;8.62;76.35
30744;BME280;17486;46.738;7.622;2023-11-19T07:23:22;95607.94;;;8.64;76.31
30744;BME280;17486;46.738;7.622;2023-11-19T07:25:48;95605.34;;;8.64;76.38
30744;BME280;17486;46.738;7.622;2023-11-19T07:28:15;95606.16;;;8.66;76.49
30744;BME280;17486;46.738;7.622;2023-11-19T07:30:42;95557.09;;;8.36;76.40
30744;BME280;17486;46.738;7.622;2023-11-19T07:33:07;95609.66;;;8.65;76.17
30744;BME280;17486;46.738;7.622;2023-11-19T07:35:33;95608.69;;;8.68;76.76
30744;BME280;17486;46.738;7.622;2023-11-19T07:37:59;95585.78;;;8.55;76.36
30744;BME280;17486;46.738;7.622;2023-11-19T07:40:24;95602.56;;;8.70;76.46
30744;BME280;17486;46.738;7.622;2023-11-19T07:42:50;95591.38;;;8.68;76.36
30744;BME280;17486;46.738;7.622;2023-11-19T07:45:16;95567.88;;;8.49;77.57
30744;BME280;17486;46.738;7.622;2023-11-19T07:47:42;95596.56;;;8.68;77.32
30744;BME280;17486;46.738;7.622;2023-11-19T07:50:10;95588.22;;;8.60;77.25
30744;BME280;17486;46.738;7.622;2023-11-19T07:52:35;95587.22;;;8.64;77.25
30744;BME280;17486;46.738;7.622;2023-11-19T07:55:01;95578.34;;;8.70;77.90
30744;BME280;17486;46.738;7.622;2023-11-19T07:57:27;95575.75;;;8.70;77.83
30744;BME280;17486;46.738;7.622;2023-11-19T07:59:56;95562.13;;;8.65;78.69
30744;BME280;17486;46.738;7.622;2023-11-19T08:02:21;95547.66;;;8.59;79.23
30744;BME280;17486;46.738;7.622;2023-11-19T08:04:47;95572.72;;;8.82;79.60
30744;BME280;17486;46.738;7.622;2023-11-19T08:07:15;95561.47;;;8.83;80.77
30744;BME280;17486;46.738;7.622;2023-11-19T08:09:40;95570.75;;;8.89;80.65
30744;BME280;17486;46.738;7.622;2023-11-19T08:12:06;95556.88;;;8.90;81.02
30744;BME280;17486;46.738;7.622;2023-11-19T08:14:32;95555.84;;;8.94;81.89
30744;BME280;17486;46.738;7.622;2023-11-19T08:16:58;95539.63;;;8.89;81.55
30744;BME280;17486;46.738;7.622;2023-11-19T08:19:23;95540.91;;;9.01;81.57
30744;BME280;17486;46.738;7.622;2023-11-19T08:21:48;95547.59;;;9.06;82.39
30744;BME280;17486;46.738;7.622;2023-11-19T08:24:14;95550.19;;;9.06;82.35
30744;BME280;17486;46.738;7.622;2023-11-19T08:26:39;95560.16;;;9.17;82.37
30744;BME280;17486;46.738;7.622;2023-11-19T08:29:05;95567.53;;;9.28;81.68
30744;BME280;17486;46.738;7.622;2023-11-19T08:31:30;95575.84;;;9.36;81.85
30744;BME280;17486;46.738;7.622;2023-11-19T08:33:56;95568.78;;;9.40;81.52
30744;BME280;17486;46.738;7.622;2023-11-19T08:36:21;95558.28;;;9.43;82.01
30744;BME280;17486;46.738;7.622;2023-11-19T08:38:47;95548.44;;;9.51;82.04
30744;BME280;17486;46.738;7.622;2023-11-19T08:41:13;95561.81;;;9.62;82.04
30744;BME280;17486;46.738;7.622;2023-11-19T08:43:38;95583.97;;;9.71;82.20
30744;BME280;17486;46.738;7.622;2023-11-19T08:46:09;95575.34;;;9.71;81.33
30744;BME280;17486;46.738;7.622;2023-11-19T08:48:34;95588.53;;;9.87;81.50
30744;BME280;17486;46.738;7.622;2023-11-19T08:51:00;95579.72;;;9.91;80.93
30744;BME280;17486;46.738;7.622;2023-11-19T08:53:25;95579.56;;;9.94;80.40
30744;BME280;17486;46.738;7.622;2023-11-19T08:55:50;95564.63;;;9.99;80.75
30744;BME280;17486;46.738;7.622;2023-11-19T08:58:16;95567.78;;;10.07;81.03
30744;BME280;17486;46.738;7.622;2023-11-19T09:00:41;95556.59;;;10.05;79.98
30744;BME280;17486;46.738;7.622;2023-11-19T09:03:07;95569.84;;;10.20;80.19
30744;BME280;17486;46.738;7.622;2023-11-19T09:05:34;95576.53;;;10.25;80.12
30744;BME280;17486;46.738;7.622;2023-11-19T09:08:00;95585.03;;;10.29;80.24
30744;BME280;17486;46.738;7.622;2023-11-19T09:10:25;95557.25;;;10.10;80.97
30744;BME280;17486;46.738;7.622;2023-11-19T09:12:52;95567.25;;;10.20;80.68
30744;BME280;17486;46.738;7.622;2023-11-19T09:15:17;95568.22;;;10.17;80.82
30744;BME280;17486;46.738;7.622;2023-11-19T09:17:43;95590.41;;;10.24;80.31
30744;BME280;17486;46.738;7.622;2023-11-19T09:20:09;95568.16;;;10.19;80.06
30744;BME280;17486;46.738;7.622;2023-11-19T09:22:37;95579.41;;;10.40;79.81
30744;BME280;17486;46.738;7.622;2023-11-19T09:25:03;95547.94;;;10.25;80.18
30744;BME280;17486;46.738;7.622;2023-11-19T09:27:30;95555.25;;;10.38;79.67
30744;BME280;17486;46.738;7.622;2023-11-19T09:29:55;95584.66;;;10.59;79.84
30744;BME280;17486;46.738;7.622;2023-11-19T09:32:23;95569.44;;;10.50;78.99
30744;BME280;17486;46.738;7.622;2023-11-19T09:34:49;95567.50;;;10.55;78.88
30744;BME280;17486;46.738;7.622;2023-11-19T09:37:14;95566.72;;;10.53;78.71
30744;BME280;17486;46.738;7.622;2023-11-19T09:39:39;95590.34;;;10.67;78.40
30744;BME280;17486;46.738;7.622;2023-11-19T09:42:11;95561.72;;;10.48;78.90
30744;BME280;17486;46.738;7.622;2023-11-19T09:44:42;95578.66;;;10.57;78.28
30744;BME280;17486;46.738;7.622;2023-11-19T09:47:08;95572.56;;;10.58;78.95
30744;BME280;17486;46.738;7.622;2023-11-19T09:49:35;95577.50;;;10.64;78.76
30744;BME280;17486;46.738;7.622;2023-11-19T09:52:01;95592.13;;;10.67;78.86
30744;BME280;17486;46.738;7.622;2023-11-19T09:54:28;95587.91;;;10.64;78.12
30744;BME280;17486;46.738;7.622;2023-11-19T09:56:56;95589.59;;;10.65;78.69
30744;BME280;17486;46.738;7.622;2023-11-19T09:59:25;95585.22;;;10.66;78.60
30744;BME280;17486;46.738;7.622;2023-11-19T10:01:51;95563.28;;;10.52;78.14
30744;BME280;17486;46.738;7.622;2023-11-19T10:04:18;95585.22;;;10.66;78.08
30744;BME280;17486;46.738;7.622;2023-11-19T10:06:44;95573.59;;;10.54;78.24
30744;BME280;17486;46.738;7.622;2023-11-19T10:09:12;95559.16;;;10.47;78.28
30744;BME280;17486;46.738;7.622;2023-11-19T10:11:37;95579.44;;;10.59;78.79
30744;BME280;17486;46.738;7.622;2023-11-19T10:14:03;95577.91;;;10.55;78.86
30744;BME280;17486;46.738;7.622;2023-11-19T10:16:29;95548.91;;;10.43;79.76
30744;BME280;17486;46.738;7.622;2023-11-19T10:18:57;95557.50;;;10.45;80.20
30744;BME280;17486;46.738;7.622;2023-11-19T10:21:24;95569.53;;;10.48;80.73
30744;BME280;17486;46.738;7.622;2023-11-19T10:23:54;95557.69;;;10.41;81.46
30744;BME280;17486;46.738;7.622;2023-11-19T10:26:22;95527.34;;;10.21;81.67
30744;BME280;17486;46.738;7.622;2023-11-19T10:28:48;95552.41;;;10.42;81.09
30744;BME280;17486;46.738;7.622;2023-11-19T10:31:14;95533.13;;;10.27;81.56
30744;BME280;17486;46.738;7.622;2023-11-19T10:33:40;95548.91;;;10.43;81.06
30744;BME280;17486;46.738;7.622;2023-11-19T10:36:06;95550.28;;;10.52;80.71
30744;BME280;17486;46.738;7.622;2023-11-19T10:38:32;95554.41;;;10.56;80.83
30744;BME280;17486;46.738;7.622;2023-11-19T10:40:57;95538.50;;;10.43;81.14
30744;BME280;17486;46.738;7.622;2023-11-19T10:43:24;95555.41;;;10.54;81.63
30744;BME280;17486;46.738;7.622;2023-11-19T10:45:50;95535.00;;;10.44;81.54
30744;BME280;17486;46.738;7.622;2023-11-19T10:48:15;95559.25;;;10.45;82.67
30744;BME280;17486;46.738;7.622;2023-11-19T10:50:43;95546.06;;;10.50;82.09
30744;BME280;17486;46.738;7.622;2023-11-19T10:53:10;95558.91;;;10.53;82.16
30744;BME280;17486;46.738;7.622;2023-11-19T10:55:38;95552.66;;;10.57;81.54
30744;BME280;17486;46.738;7.622;2023-11-19T10:58:05;95559.28;;;10.64;81.37
30744;BME280;17486;46.738;7.622;2023-11-19T11:00:57;95551.25;;;10.69;81.29
30744;BME280;17486;46.738;7.622;2023-11-19T11:03:25;95530.66;;;10.64;80.83
30744;BME280;17486;46.738;7.622;2023-11-19T11:05:55;95512.81;;;10.56;80.67
30744;BME280;17486;46.738;7.622;2023-11-19T11:08:21;95553.44;;;10.78;80.42
30744;BME280;17486;46.738;7.622;2023-11-19T11:10:54;95528.56;;;10.72;80.47
30744;BME280;17486;46.738;7.622;2023-11-19T11:13:22;95534.25;;;10.81;80.21
30744;BME280;17486;46.738;7.622;2023-11-19T11:15:49;95516.19;;;10.77;80.73
30744;BME280;17486;46.738;7.622;2023-11-19T11:18:15;95528.63;;;10.90;80.98
30744;BME280;17486;46.738;7.622;2023-11-19T11:20:44;95531.09;;;10.93;80.43
30744;BME280;17486;46.738;7.622;2023-11-19T11:29:13;95525.88;;;10.93;80.48
30744;BME280;17486;46.738;7.622;2023-11-19T11:39:34;95502.03;;;11.02;80.23
30744;BME280;17486;46.738;7.622;2023-11-19T11:44:57;95508.22;;;11.00;79.77
30744;BME280;17486;46.738;7.622;2023-11-19T11:47:23;95509.75;;;11.04;79.76
30744;BME280;17486;46.738;7.622;2023-11-19T11:49:49;95523.47;;;11.07;79.55
30744;BME280;17486;46.738;7.622;2023-11-19T11:52:16;95529.50;;;11.08;79.48
30744;BME280;17486;46.738;7.622;2023-11-19T11:54:42;95536.22;;;11.14;79.74
30744;BME280;17486;46.738;7.622;2023-11-19T11:57:12;95527.25;;;11.19;79.42
30744;BME280;17486;46.738;7.622;2023-11-19T12:02:08;95511.19;;;11.28;80.09
30744;BME280;17486;46.738;7.622;2023-11-19T12:04:35;95511.28;;;11.27;79.18
30744;BME280;17486;46.738;7.622;2023-11-19T12:07:15;95483.22;;;11.15;79.27
30744;BME280;17486;46.738;7.622;2023-11-19T12:09:41;95507.22;;;11.39;79.11
30744;BME280;17486;46.738;7.622;2023-11-19T12:15:05;95507.47;;;11.52;78.74
30744;BME280;17486;46.738;7.622;2023-11-19T12:20:03;95491.69;;;11.55;78.61
30744;BME280;17486;46.738;7.622;2023-11-19T12:22:30;95492.31;;;11.60;78.12
30744;BME280;17486;46.738;7.622;2023-11-19T12:24:56;95491.31;;;11.63;78.18
30744;BME280;17486;46.738;7.622;2023-11-19T12:27:21;95492.94;;;11.65;78.30
30744;BME280;17486;46.738;7.622;2023-11-19T12:29:48;95484.31;;;11.63;78.60
30744;BME280;17486;46.738;7.622;2023-11-19T12:32:14;95486.72;;;11.68;77.88
30744;BME280;17486;46.738;7.622;2023-11-19T12:34:39;95484.88;;;11.70;78.32
30744;BME280;17486;46.738;7.622;2023-11-19T12:37:05;95490.78;;;11.73;78.06
30744;BME280;17486;46.738;7.622;2023-11-19T12:39:31;95490.78;;;11.73;77.42
30744;BME280;17486;46.738;7.622;2023-11-19T12:41:57;95489.06;;;11.72;77.73
30744;BME280;17486;46.738;7.622;2023-11-19T12:44:25;95463.03;;;11.55;77.75
30744;BME280;17486;46.738;7.622;2023-11-19T12:47:01;95489.88;;;11.57;78.09
30744;BME280;17486;46.738;7.622;2023-11-19T12:49:27;95471.47;;;11.42;78.75
30744;BME280;17486;46.738;7.622;2023-11-19T12:51:53;95455.31;;;11.36;79.59
30744;BME280;17486;46.738;7.622;2023-11-19T12:54:18;95474.38;;;11.36;80.77
30744;BME280;17486;46.738;7.622;2023-11-19T12:56:53;95480.66;;;11.32;80.45
30744;BME280;17486;46.738;7.622;2023-11-19T12:59:19;95484.00;;;11.34;80.45
30744;BME280;17486;46.738;7.622;2023-11-19T13:02:10;95480.50;;;11.35;80.18
30744;BME280;17486;46.738;7.622;2023-11-19T13:04:36;95482.19;;;11.36;80.12
30744;BME280;17486;46.738;7.622;2023-11-19T13:07:01;95467.72;;;11.31;79.75
30744;BME280;17486;46.738;7.622;2023-11-19T13:09:30;95476.16;;;11.36;79.67
30744;BME280;17486;46.738;7.622;2023-11-19T13:11:56;95480.50;;;11.35;80.06
30744;BME280;17486;46.738;7.622;2023-11-19T13:14:22;95451.44;;;11.08;80.89
30744;BME280;17486;46.738;7.622;2023-11-19T13:16:48;95451.50;;;11.06;80.82
30744;BME280;17486;46.738;7.622;2023-11-19T13:19:17;95470.97;;;11.17;81.02
30744;BME280;17486;46.738;7.622;2023-11-19T13:21:44;95467.69;;;11.13;80.82
30744;BME280;17486;46.738;7.622;2023-11-19T13:24:12;95491.28;;;11.27;80.74
30744;BME280;17486;46.738;7.622;2023-11-19T13:26:38;95462.03;;;11.22;81.17
30744;BME280;17486;46.738;7.622;2023-11-19T13:29:03;95479.75;;;11.33;81.28
30744;BME280;17486;46.738;7.622;2023-11-19T13:31:29;95476.34;;;11.31;81.38
30744;BME280;17486;46.738;7.622;2023-11-19T13:33:55;95484.88;;;11.35;81.10
30744;BME280;17486;46.738;7.622;2023-11-19T13:36:21;95487.09;;;11.42;80.72
30744;BME280;17486;46.738;7.622;2023-11-19T13:38:47;95487.09;;;11.42;81.06
30744;BME280;17486;46.738;7.622;2023-11-19T13:41:12;95485.25;;;11.44;80.36
30744;BME280;17486;46.738;7.622;2023-11-19T13:43:39;95480.03;;;11.44;81.03
30744;BME280;17486;46.738;7.622;2023-11-19T13:46:05;95499.59;;;11.53;80.91
30744;BME280;17486;46.738;7.622;2023-11-19T13:48:31;95475.38;;;11.51;81.03
30744;BME280;17486;46.738;7.622;2023-11-19T13:50:57;95491.31;;;11.63;80.96
30744;BME280;17486;46.738;7.622;2023-11-19T13:53:23;95458.06;;;11.50;81.28
30744;BME280;17486;46.738;7.622;2023-11-19T13:55:51;95489.25;;;11.69;81.54
30744;BME280;17486;46.738;7.622;2023-11-19T13:58:17;95482.41;;;11.67;80.77